Time;durP1;ratioP1;P1;durP2;ratioP2;P2;SDS_P1;SDS_P2;PMS_P1;PMS_P2;Temp;Humidity;BMP_temperature;BMP_pressure;BME280_temperature;BME280_humidity;BME280_pressure;Samples;Min_cycle;Max_cycle;Signal;HPM_P1;HPM_P2
2022/05/24 00:02:06;;;;;;;73.63;16.87;;;16.70;99.90;;;;;;6093989;23;20457;-86
2022/05/24 00:04:32;;;;;;;73.73;18.63;;;16.70;99.90;;;;;;6094152;23;20150;-86
2022/05/24 00:06:58;;;;;;;75.90;18.93;;;16.60;99.90;;;;;;6068389;23;20419;-86
2022/05/24 00:09:25;;;;;;;71.57;18.13;;;16.60;99.90;;;;;;6094176;23;20373;-86
2022/05/24 00:11:51;;;;;;;74.00;18.53;;;16.60;99.90;;;;;;6093624;23;20874;-86
2022/05/24 00:15:19;;;;;;;71.17;18.10;;;16.60;99.90;;;;;;6092184;23;20380;-86
2022/05/24 00:17:07;;;;;;;71.70;17.50;;;16.60;99.90;;;;;;6093576;23;20376;-86
2022/05/24 00:19:34;;;;;;;74.70;17.60;;;16.70;99.90;;;;;;6093691;23;20828;-86
2022/05/24 00:21:59;;;;;;;73.90;16.90;;;16.60;99.90;;;;;;6067857;23;20432;-86
2022/05/24 00:24:25;;;;;;;71.33;16.70;;;16.70;99.90;;;;;;6068067;23;20726;-86
2022/05/24 00:26:51;;;;;;;73.17;16.77;;;16.70;99.90;;;;;;6093602;23;20277;-86
2022/05/24 00:29:17;;;;;;;70.13;14.77;;;16.50;99.90;;;;;;6068190;23;20230;-86
2022/05/24 00:31:45;;;;;;;70.97;16.60;;;16.50;99.90;;;;;;6093706;23;20164;-85
2022/05/24 00:34:11;;;;;;;72.33;16.90;;;16.50;99.90;;;;;;6068974;23;20156;-86
2022/05/24 00:36:39;;;;;;;70.80;15.10;;;16.50;99.90;;;;;;6092555;23;20384;-86
2022/05/24 00:39:05;;;;;;;73.20;21.70;;;16.50;99.90;;;;;;6093548;23;20541;-85
2022/05/24 00:41:47;;;;;;;71.23;22.33;;;16.40;99.90;;;;;;6068010;23;20396;-86
2022/05/24 00:44:29;;;;;;;75.17;20.50;;;16.40;99.90;;;;;;6094743;23;20456;-86
2022/05/24 00:47:00;;;;;;;69.90;15.20;;;16.40;99.90;;;;;;6067960;23;20415;-86
2022/05/24 00:49:56;;;;;;;68.97;14.27;;;16.30;99.90;;;;;;6068047;23;20450;-86
2022/05/24 00:52:56;;;;;;;72.53;14.77;;;16.30;99.90;;;;;;6067930;23;20481;-86
2022/05/24 00:55:23;;;;;;;72.00;15.07;;;16.40;99.90;;;;;;6058995;23;20723;-86
2022/05/24 00:57:56;;;;;;;71.50;18.03;;;16.40;99.90;;;;;;6093311;23;20678;-86
2022/05/24 01:00:25;;;;;;;73.67;22.63;;;16.40;99.90;;;;;;6093579;23;20367;-86
2022/05/24 01:02:51;;;;;;;73.60;27.40;;;16.30;99.90;;;;;;6091841;23;20485;-86
2022/05/24 01:05:21;;;;;;;75.03;29.60;;;16.30;99.90;;;;;;6093440;23;20856;-86
2022/05/24 01:07:46;;;;;;;74.50;28.37;;;16.30;99.90;;;;;;6067743;23;20179;-86
2022/05/24 01:10:21;;;;;;;76.03;31.50;;;16.30;99.90;;;;;;6067841;23;20482;-86
2022/05/24 01:13:01;;;;;;;74.33;27.73;;;16.40;99.90;;;;;;6067731;23;20638;-86
2022/05/24 01:15:28;;;;;;;73.37;28.67;;;16.30;99.90;;;;;;6093895;23;20362;-86
2022/05/24 01:17:55;;;;;;;73.70;29.03;;;16.30;99.90;;;;;;6093403;23;20375;-86
2022/05/24 01:20:22;;;;;;;74.63;26.50;;;16.30;99.90;;;;;;6068659;23;20387;-86
2022/05/24 01:22:56;;;;;;;75.43;30.87;;;16.30;99.90;;;;;;6093109;23;20410;-86
2022/05/24 01:25:33;;;;;;;75.30;29.27;;;16.30;99.90;;;;;;6093345;23;20362;-86
2022/05/24 01:28:02;;;;;;;71.90;23.97;;;16.20;99.90;;;;;;6067709;23;20414;-86
2022/05/24 01:30:28;;;;;;;72.73;23.90;;;16.30;99.90;;;;;;6093463;23;20378;-85
2022/05/24 01:38:24;;;;;;;72.40;19.50;;;16.40;99.90;;;;;;6093706;23;20724;-86
2022/05/24 01:40:52;;;;;;;70.07;22.43;;;16.50;99.90;;;;;;6067691;23;20391;-86
2022/05/24 01:43:22;;;;;;;72.03;26.37;;;16.40;99.90;;;;;;6093592;23;20769;-86
2022/05/24 01:45:52;;;;;;;71.73;21.77;;;16.40;99.90;;;;;;6093441;23;20372;-86
2022/05/24 01:48:26;;;;;;;80.60;23.47;;;16.30;99.90;;;;;;6093779;23;20399;-86
2022/05/24 01:50:54;;;;;;;70.67;22.87;;;16.30;99.90;;;;;;6093272;23;20387;-86
2022/05/24 01:53:30;;;;;;;70.53;19.90;;;16.20;99.90;;;;;;6067730;23;20433;-86
2022/05/24 01:55:59;;;;;;;70.57;20.47;;;16.30;99.90;;;;;;6093665;23;20421;-86
2022/05/24 01:58:28;;;;;;;70.33;22.83;;;16.30;99.90;;;;;;6067637;23;20380;-85
2022/05/24 02:00:58;;;;;;;70.00;20.40;;;16.30;99.90;;;;;;6093174;23;20383;-86
2022/05/24 02:03:24;;;;;;;69.70;21.47;;;16.30;99.90;;;;;;6093377;23;20355;-86
2022/05/24 02:05:50;;;;;;;67.40;14.13;;;16.20;99.90;;;;;;6093479;23;20459;-85
2022/05/24 02:08:15;;;;;;;68.30;14.30;;;16.20;99.90;;;;;;6093280;23;20175;-85
2022/05/24 02:10:59;;;;;;;67.77;12.70;;;16.30;99.90;;;;;;6067729;23;20238;-85
2022/05/24 02:13:31;;;;;;;67.47;11.97;;;16.40;99.90;;;;;;6093280;23;20185;-85
2022/05/24 02:16:02;;;;;;;70.47;13.60;;;16.30;99.90;;;;;;6093464;23;20368;-85
2022/05/24 02:18:29;;;;;;;70.30;12.03;;;16.30;99.90;;;;;;6093539;23;20352;-85
2022/05/24 02:20:55;;;;;;;68.23;11.27;;;16.40;99.90;;;;;;6067559;23;20402;-85
2022/05/24 02:23:21;;;;;;;69.83;14.33;;;16.50;99.90;;;;;;6068397;23;20771;-86
2022/05/24 02:25:53;;;;;;;80.83;14.57;;;16.40;99.90;;;;;;6093816;23;20376;-85
2022/05/24 02:28:30;;;;;;;69.27;12.93;;;16.40;99.90;;;;;;6093842;23;20407;-85
2022/05/24 02:31:05;;;;;;;71.10;14.77;;;16.30;99.90;;;;;;6067439;23;20406;-85
2022/05/24 02:33:35;;;;;;;70.77;12.97;;;16.30;99.90;;;;;;6067467;23;20824;-86
2022/05/24 02:36:01;;;;;;;74.77;15.73;;;16.30;99.90;;;;;;6068370;23;20871;-85
2022/05/24 02:38:27;;;;;;;68.17;13.20;;;16.40;99.90;;;;;;6067405;23;20381;-85
2022/05/24 02:43:38;;;;;;;69.33;13.87;;;16.20;99.90;;;;;;6093373;23;20350;-86
2022/05/24 02:46:04;;;;;;;70.87;14.23;;;16.20;99.90;;;;;;6092938;23;20371;-86
2022/05/24 02:48:30;;;;;;;73.53;17.20;;;16.20;99.90;;;;;;6092760;23;20902;-86
2022/05/24 02:50:55;;;;;;;72.17;17.13;;;16.10;99.90;;;;;;6067580;23;20760;-86
2022/05/24 02:53:21;;;;;;;70.07;15.37;;;16.10;99.90;;;;;;6067688;23;20485;-86
2022/05/24 02:55:47;;;;;;;68.63;12.83;;;16.10;99.90;;;;;;6092781;23;20364;-85
2022/05/24 02:58:13;;;;;;;72.03;15.60;;;16.20;99.90;;;;;;6092765;23;20457;-86
2022/05/24 03:00:41;;;;;;;72.60;13.53;;;16.10;99.90;;;;;;6092735;23;20231;-87
2022/05/24 03:03:07;;;;;;;69.70;14.10;;;16.00;99.90;;;;;;6093060;23;20385;-85
2022/05/24 03:05:33;;;;;;;70.77;14.50;;;16.10;99.90;;;;;;6092763;23;20429;-86
2022/05/24 03:10:43;;;;;;;69.30;13.90;;;16.10;99.90;;;;;;6092778;23;20164;-85
2022/05/24 03:15:54;;;;;;;69.30;15.00;;;16.00;99.90;;;;;;6093325;23;20177;-85
2022/05/24 03:18:22;;;;;;;70.17;16.20;;;16.00;99.90;;;;;;6092727;23;20454;-86
2022/05/24 03:20:49;;;;;;;72.70;12.40;;;16.00;99.90;;;;;;6091412;23;20378;-88
2022/05/24 03:23:16;;;;;;;69.60;12.43;;;16.00;99.90;;;;;;6066891;23;20467;-84
2022/05/24 03:25:42;;;;;;;66.60;6.93;;;16.00;99.90;;;;;;6069039;23;20358;-84
2022/05/24 03:28:08;;;;;;;66.57;6.10;;;15.90;99.90;;;;;;6068616;23;20421;-84
2022/05/24 03:30:39;;;;;;;67.80;5.97;;;16.00;99.90;;;;;;6068345;23;20402;-84
2022/05/24 03:33:05;;;;;;;67.97;5.07;;;16.00;99.90;;;;;;6041335;23;20400;-85
2022/05/24 03:35:31;;;;;;;66.97;5.67;;;15.90;99.90;;;;;;6042792;23;20386;-85
2022/05/24 03:37:56;;;;;;;65.83;5.43;;;15.80;99.90;;;;;;6042400;23;20376;-85
2022/05/24 03:40:22;;;;;;;64.00;4.70;;;15.90;99.90;;;;;;6040899;23;20162;-85
2022/05/24 03:42:51;;;;;;;67.80;5.20;;;15.80;99.90;;;;;;6042270;23;20189;-84
2022/05/24 03:45:18;;;;;;;63.53;4.83;;;15.70;99.90;;;;;;6040136;23;20457;-85
2022/05/24 03:47:44;;;;;;;67.37;7.60;;;15.60;99.90;;;;;;6039702;23;20422;-85
2022/05/24 03:50:11;;;;;;;65.53;5.30;;;15.70;99.90;;;;;;6040421;23;20712;-84
2022/05/24 03:52:36;;;;;;;65.57;5.70;;;15.70;99.90;;;;;;6040854;23;20392;-85
2022/05/24 03:55:03;;;;;;;64.07;5.70;;;15.70;99.90;;;;;;6039319;23;20926;-84
2022/05/24 04:00:16;;;;;;;65.50;5.50;;;15.60;99.90;;;;;;6040274;23;20359;-85
2022/05/24 04:02:42;;;;;;;65.23;5.30;;;15.70;99.90;;;;;;6039836;23;20402;-85
2022/05/24 04:05:08;;;;;;;64.50;6.10;;;15.60;99.90;;;;;;6037646;23;20728;-85
2022/05/24 04:07:35;;;;;;;65.83;7.90;;;15.70;99.90;;;;;;6040415;23;20560;-85
2022/05/24 04:10:02;;;;;;;65.37;7.47;;;15.70;99.90;;;;;;6038743;23;20395;-85
2022/05/24 04:12:28;;;;;;;66.03;6.27;;;15.60;99.90;;;;;;6039797;23;20448;-85
2022/05/24 04:14:53;;;;;;;66.43;5.80;;;15.60;99.90;;;;;;6039728;23;20797;-84
2022/05/24 04:17:20;;;;;;;68.77;6.63;;;15.60;99.90;;;;;;6040394;23;20145;-85
2022/05/24 04:19:45;;;;;;;66.37;5.90;;;15.60;99.90;;;;;;6041251;23;20154;-84
2022/05/24 04:22:11;;;;;;;64.47;6.07;;;15.50;99.90;;;;;;6072108;23;20461;-84
2022/05/24 04:24:37;;;;;;;65.87;5.00;;;15.50;99.90;;;;;;6191676;23;20132;-86
2022/05/24 04:27:05;;;;;;;63.60;5.80;;;15.50;99.90;;;;;;6192338;23;20167;-86
2022/05/24 04:29:31;;;;;;;64.93;4.80;;;15.40;99.90;;;;;;6165606;23;20150;-86
2022/05/24 04:31:57;;;;;;;66.73;5.70;;;15.40;99.90;;;;;;6193017;23;20388;-86
2022/05/24 04:34:22;;;;;;;65.63;8.97;;;15.40;99.90;;;;;;6168426;23;20156;-86
2022/05/24 04:36:48;;;;;;;67.00;14.97;;;15.30;99.90;;;;;;6194984;23;20143;-86
2022/05/24 04:39:15;;;;;;;69.83;21.33;;;15.20;99.90;;;;;;6200539;23;20142;-87
2022/05/24 04:44:25;;;;;;;71.40;22.30;;;15.00;99.90;;;;;;6195292;23;20878;-86
2022/05/24 04:47:10;;;;;;;75.70;23.40;;;14.90;99.90;;;;;;6195169;23;20495;-87
2022/05/24 04:49:38;;;;;;;69.07;20.87;;;15.00;99.90;;;;;;6194615;23;20137;-86
2022/05/24 04:52:06;;;;;;;72.20;23.00;;;15.00;99.90;;;;;;6194834;23;20389;-86
2022/05/24 04:54:31;;;;;;;72.50;21.20;;;15.00;99.90;;;;;;6194209;23;20369;-86
2022/05/24 04:56:57;;;;;;;73.13;18.60;;;14.90;99.90;;;;;;6167902;23;20379;-86
2022/05/24 04:59:23;;;;;;;69.60;19.40;;;14.80;99.90;;;;;;6195463;23;20593;-86
2022/05/24 05:01:52;;;;;;;67.20;16.63;;;14.80;99.90;;;;;;6194603;23;20173;-88
2022/05/24 05:04:23;;;;;;;75.40;30.97;;;14.70;99.90;;;;;;6169057;23;20382;-86
2022/05/24 05:06:49;;;;;;;70.97;27.67;;;14.60;99.90;;;;;;6197273;23;20433;-84
2022/05/24 05:09:15;;;;;;;73.63;30.20;;;14.60;99.90;;;;;;6194311;23;20834;-87
2022/05/24 05:11:41;;;;;;;79.97;42.30;;;14.60;99.90;;;;;;6194105;23;20428;-86
2022/05/24 05:14:08;;;;;;;76.67;45.57;;;14.60;99.90;;;;;;6194230;23;20362;-85
2022/05/24 05:16:35;;;;;;;80.10;54.67;;;14.60;99.90;;;;;;6166891;23;20388;-86
2022/05/24 05:19:07;;;;;;;81.87;47.10;;;14.60;99.90;;;;;;6168700;23;20377;-87
2022/05/24 05:21:34;;;;;;;81.93;50.17;;;14.50;99.90;;;;;;6193557;23;20382;-86
2022/05/24 05:24:01;;;;;;;83.50;55.97;;;14.40;99.90;;;;;;6049569;23;20713;-86
2022/05/24 05:26:27;;;;;;;80.10;50.67;;;14.40;99.90;;;;;;6045886;23;20420;-86
2022/05/24 05:28:53;;;;;;;96.87;80.47;;;14.50;99.90;;;;;;6045190;23;20850;-86
2022/05/24 05:31:28;;;;;;;98.70;87.83;;;14.50;99.90;;;;;;6045065;23;20395;-86
2022/05/24 05:33:58;;;;;;;88.57;68.83;;;14.40;99.90;;;;;;6045481;23;20408;-86
2022/05/24 05:36:25;;;;;;;84.77;62.60;;;14.40;99.90;;;;;;6042519;23;20386;-86
2022/05/24 05:38:50;;;;;;;83.77;62.50;;;14.50;99.90;;;;;;6041858;23;20385;-86
2022/05/24 05:41:22;;;;;;;88.67;62.10;;;14.60;99.90;;;;;;6043476;23;20402;-86
2022/05/24 05:43:48;;;;;;;93.80;69.10;;;14.60;99.90;;;;;;6042626;23;20151;-86
2022/05/24 05:46:15;;;;;;;95.87;73.40;;;14.60;99.90;;;;;;6042639;23;20375;-87
2022/05/24 05:48:41;;;;;;;86.80;64.20;;;14.60;99.90;;;;;;6043191;23;20409;-87
2022/05/24 05:51:08;;;;;;;93.43;77.53;;;14.60;99.90;;;;;;6040346;23;20434;-86
2022/05/24 05:53:34;;;;;;;84.37;49.97;;;14.50;99.90;;;;;;6041924;23;20365;-87
2022/05/24 05:56:00;;;;;;;89.60;68.07;;;14.60;99.90;;;;;;6041066;23;20366;-87
2022/05/24 05:58:28;;;;;;;90.37;69.57;;;14.40;99.90;;;;;;6040695;23;20377;-88
2022/05/24 06:00:54;;;;;;;86.63;73.40;;;14.40;99.90;;;;;;6040151;23;20954;-88
2022/05/24 06:03:20;;;;;;;84.57;63.77;;;14.30;99.90;;;;;;6041388;23;20379;-87
2022/05/24 06:05:49;;;;;;;101.57;90.27;;;14.40;99.90;;;;;;6041884;23;20448;-87
2022/05/24 06:08:15;;;;;;;90.93;73.53;;;14.40;99.90;;;;;;6041939;23;20187;-86
2022/05/24 06:10:41;;;;;;;103.13;92.33;;;14.40;99.90;;;;;;6043789;23;20369;-88
2022/05/24 06:13:07;;;;;;;90.87;78.07;;;14.30;99.90;;;;;;6042287;23;20385;-87
2022/05/24 06:15:33;;;;;;;86.53;72.57;;;14.40;99.90;;;;;;6042292;23;20381;-88
2022/05/24 06:17:59;;;;;;;81.70;54.70;;;14.40;99.90;;;;;;6040327;23;20155;-88
2022/05/24 06:20:29;;;;;;;66.23;20.57;;;14.30;99.90;;;;;;6039717;23;20460;-88
2022/05/24 06:22:57;;;;;;;68.73;22.67;;;14.30;99.90;;;;;;6039760;23;20192;-88
2022/05/24 06:25:27;;;;;;;69.83;19.80;;;14.20;99.90;;;;;;6041431;23;20378;-88
2022/05/24 06:27:54;;;;;;;69.63;19.50;;;14.20;99.90;;;;;;6040904;23;20412;-88
2022/05/24 06:30:21;;;;;;;67.20;18.07;;;14.30;99.90;;;;;;6041639;23;20747;-87
2022/05/24 06:32:47;;;;;;;84.67;63.60;;;14.20;99.90;;;;;;6038672;23;20763;-86
2022/05/24 06:35:14;;;;;;;93.50;79.43;;;14.10;99.90;;;;;;6041183;23;20381;-87
2022/05/24 06:37:41;;;;;;;76.63;48.73;;;14.10;99.90;;;;;;6041783;23;20779;-87
2022/05/24 06:40:08;;;;;;;87.13;69.17;;;14.10;99.90;;;;;;6039121;23;20409;-87
2022/05/24 06:42:34;;;;;;;90.00;71.73;;;14.10;99.90;;;;;;6041924;23;20443;-86
2022/05/24 06:45:01;;;;;;;71.07;31.13;;;14.20;99.90;;;;;;6046326;23;20346;-87
2022/05/24 06:47:27;;;;;;;67.13;18.57;;;14.40;99.90;;;;;;6045423;23;20220;-87
2022/05/24 06:49:53;;;;;;;63.90;12.23;;;14.40;99.90;;;;;;6042423;23;20357;-86
2022/05/24 06:52:20;;;;;;;64.50;9.77;;;14.50;99.90;;;;;;6042676;23;20390;-87
2022/05/24 06:54:46;;;;;;;65.53;13.60;;;14.50;99.90;;;;;;6042280;23;20149;-87
2022/05/24 06:57:12;;;;;;;66.30;11.80;;;14.60;99.90;;;;;;6044701;23;20463;-86
2022/05/24 07:02:27;;;;;;;64.80;14.40;;;14.70;99.90;;;;;;6045125;23;20412;-87
2022/05/24 07:05:16;;;;;;;67.23;15.30;;;14.80;99.90;;;;;;6044949;23;20408;-87
2022/05/24 07:07:42;;;;;;;66.20;11.33;;;14.90;99.90;;;;;;6042785;23;20472;-87
2022/05/24 07:10:12;;;;;;;64.00;7.20;;;14.90;99.90;;;;;;6043767;23;20393;-87
2022/05/24 07:12:39;;;;;;;62.77;7.30;;;15.00;99.90;;;;;;6042738;23;20166;-87
2022/05/24 07:15:05;;;;;;;65.20;7.87;;;15.10;99.90;;;;;;6042295;23;20398;-87
2022/05/24 07:17:31;;;;;;;63.80;9.90;;;15.10;99.90;;;;;;6044407;23;20376;-87
2022/05/24 07:19:57;;;;;;;66.10;8.93;;;14.90;99.90;;;;;;6043669;23;20414;-87
2022/05/24 07:22:22;;;;;;;67.77;11.60;;;15.00;99.90;;;;;;6089346;23;20181;-86
2022/05/24 07:24:49;;;;;;;64.63;12.13;;;15.10;99.90;;;;;;6196055;23;20132;-86
2022/05/24 07:27:18;;;;;;;70.17;12.50;;;15.20;99.90;;;;;;6195763;23;20174;-86
2022/05/24 07:29:44;;;;;;;65.57;13.10;;;15.20;99.90;;;;;;6195621;23;20405;-86
2022/05/24 07:32:19;;;;;;;63.90;10.27;;;15.20;99.90;;;;;;6193308;23;20391;-85
2022/05/24 07:34:45;;;;;;;64.50;10.70;;;15.30;99.90;;;;;;6194757;23;20350;-85
2022/05/24 07:37:15;;;;;;;63.70;9.23;;;15.30;99.90;;;;;;6168816;23;20391;-86
2022/05/24 07:39:41;;;;;;;70.43;11.97;;;15.40;99.90;;;;;;6195561;23;20152;-86
2022/05/24 07:47:35;;;;;;;64.80;11.27;;;15.70;99.90;;;;;;6195270;23;20545;-88
2022/05/24 07:50:02;;;;;;;64.47;12.93;;;15.70;99.90;;;;;;6168541;23;20382;-87
2022/05/24 07:52:28;;;;;;;64.17;9.60;;;15.40;99.90;;;;;;6166982;23;20883;-87
2022/05/24 07:54:53;;;;;;;65.20;11.93;;;15.40;99.90;;;;;;6193877;23;20366;-88
2022/05/24 07:57:19;;;;;;;65.13;13.27;;;15.60;99.90;;;;;;6193970;23;20684;-87
2022/05/24 07:59:47;;;;;;;67.23;12.70;;;15.60;99.90;;;;;;6194184;23;20226;-87
2022/05/24 08:02:14;;;;;;;69.87;8.37;;;15.60;99.90;;;;;;6194069;23;20770;-86
2022/05/24 08:04:40;;;;;;;63.47;5.80;;;15.60;99.90;;;;;;6194946;23;20682;-86
2022/05/24 08:07:06;;;;;;;63.37;4.17;;;15.60;99.90;;;;;;6195078;23;20398;-87
2022/05/24 08:09:32;;;;;;;61.60;3.47;;;15.70;99.90;;;;;;6194348;23;20376;-87
2022/05/24 08:11:58;;;;;;;63.30;3.87;;;15.70;99.90;;;;;;6167511;23;20177;-88
2022/05/24 08:14:24;;;;;;;62.50;4.37;;;15.60;99.90;;;;;;6194175;23;20692;-88
2022/05/24 08:16:50;;;;;;;62.17;4.20;;;15.50;99.90;;;;;;6167609;23;20272;-86
2022/05/24 08:19:16;;;;;;;62.47;5.17;;;15.50;99.90;;;;;;6168631;23;20378;-87
2022/05/24 08:21:41;;;;;;;61.87;3.77;;;15.50;99.90;;;;;;6193442;23;20543;-87
2022/05/24 08:24:08;;;;;;;67.40;3.90;;;15.60;99.90;;;;;;6193745;23;20151;-87
2022/05/24 08:26:33;;;;;;;62.70;3.80;;;15.70;99.90;;;;;;6193440;23;20194;-87
2022/05/24 08:28:59;;;;;;;64.00;4.37;;;15.80;99.90;;;;;;6194271;23;20694;-88
2022/05/24 08:31:25;;;;;;;62.07;3.37;;;15.70;99.90;;;;;;6192891;23;20161;-87
2022/05/24 08:33:51;;;;;;;63.27;4.30;;;16.00;99.90;;;;;;6167180;23;20148;-87
2022/05/24 08:36:17;;;;;;;62.43;4.10;;;16.10;99.90;;;;;;6166588;23;20398;-88
2022/05/24 08:38:43;;;;;;;63.23;6.33;;;16.20;99.90;;;;;;6192713;23;20382;-87
2022/05/24 08:41:31;;;;;;;66.20;5.47;;;16.20;99.90;;;;;;6193790;23;20276;-87
2022/05/24 08:49:57;;;;;;;63.30;3.17;;;16.20;99.90;;;;;;6194347;23;20383;-88
2022/05/24 08:52:26;;;;;;;63.60;3.20;;;16.10;99.90;;;;;;6192600;23;20789;-86
2022/05/24 08:54:53;;;;;;;64.13;4.80;;;16.00;99.90;;;;;;6193294;23;20446;-85
2022/05/24 08:57:33;;;;;;;66.13;9.97;;;15.90;99.90;;;;;;6164566;23;20394;-86
2022/05/24 09:00:06;;;;;;;63.87;4.10;;;16.10;99.90;;;;;;6190845;23;20356;-86
2022/05/24 09:02:32;;;;;;;64.17;2.60;;;16.20;99.90;;;;;;6191140;23;20402;-87
2022/05/24 09:04:58;;;;;;;63.13;2.70;;;16.40;99.90;;;;;;6190901;23;20453;-87
2022/05/24 09:07:40;;;;;;;63.07;2.83;;;16.40;99.90;;;;;;6190883;23;20229;-86
2022/05/24 09:10:15;;;;;;;63.20;3.27;;;16.40;99.90;;;;;;6190958;23;20138;-87
2022/05/24 09:13:26;;;;;;;63.50;4.37;;;16.60;99.90;;;;;;6164733;23;20410;-87
2022/05/24 09:16:02;;;;;;;63.97;3.30;;;16.60;99.90;;;;;;6203066;23;20388;-86
2022/05/24 09:18:49;;;;;;;64.53;3.43;;;16.70;99.90;;;;;;6163728;23;20408;-86
2022/05/24 09:21:37;;;;;;;63.73;4.40;;;16.90;99.90;;;;;;6189577;23;20411;-86
2022/05/24 09:24:44;;;;;;;64.10;2.93;;;17.10;96.30;;;;;;6091359;23;20451;-85
2022/05/24 09:27:31;;;;;;;65.07;2.73;;;17.30;86.10;;;;;;6097336;23;20430;-85
2022/05/24 09:30:29;;;;;;;64.87;2.80;;;17.50;84.40;;;;;;6097041;23;20383;-84
2022/05/24 09:33:25;;;;;;;64.07;2.93;;;17.60;76.90;;;;;;6101860;23;20396;-84
2022/05/24 09:36:01;;;;;;;63.23;2.80;;;17.50;85.50;;;;;;6097273;23;20691;-84
2022/05/24 09:38:39;;;;;;;64.00;3.27;;;17.70;94.30;;;;;;6099444;23;20430;-84
2022/05/24 09:41:34;;;;;;;;;;;;;;;;;;;;;
2022/05/24 09:44:17;;;;;;;65.77;4.23;;;17.50;69.60;;;;;;6098334;23;20408;-85
2022/05/24 09:46:47;;;;;;;64.87;5.53;;;17.40;68.80;;;;;;6098434;23;20357;-85
2022/05/24 09:49:30;;;;;;;63.97;4.53;;;17.20;76.60;;;;;;6099717;23;20773;-85
2022/05/24 09:52:17;;;;;;;65.63;4.97;;;17.10;68.00;;;;;;6097575;23;20422;-85
2022/05/24 09:55:32;;;;;;;65.77;4.30;;;17.10;76.20;;;;;;6184958;23;20548;-85
2022/05/24 09:58:38;;;;;;;65.00;4.43;;;17.20;81.60;;;;;;6098380;23;20871;-87
2022/05/24 10:01:49;;;;;;;64.17;4.30;;;17.30;72.30;;;;;;6097744;23;20391;-86
2022/05/24 10:04:39;;;;;;;64.97;4.90;;;17.20;69.60;;;;;;6095187;23;20383;-86
2022/05/24 10:07:27;;;;;;;64.70;3.97;;;17.30;74.00;;;;;;6095017;23;20404;-86
2022/05/24 10:10:40;;;;;;;;;;;;;;;;;;;;;
2022/05/24 10:16:34;;;;;;;64.77;4.03;;;17.80;67.50;;;;;;6097111;23;20363;-86
2022/05/24 10:23:15;;;;;;;66.50;3.90;;;18.00;68.70;;;;;;6082194;23;20415;-86
2022/05/24 10:26:43;;;;;;;;;;;;;;;;;;;;;
2022/05/24 10:30:44;;;;;;;65.03;4.13;;;17.80;55.70;;;;;;6098264;23;20380;-86
2022/05/24 10:39:39;;;;;;;65.43;3.97;;;18.30;46.80;;;;;;6098531;23;20371;-86
2022/05/24 10:42:47;;;;;;;65.17;3.53;;;18.70;39.80;;;;;;6096103;23;20383;-86
2022/05/24 10:49:29;;;;;;;64.97;3.03;;;19.80;35.30;;;;;;6041206;23;20417;-86
2022/05/24 10:52:29;;;;;;;65.00;3.37;;;20.10;27.50;;;;;;6013758;23;20409;-87
2022/05/24 10:55:19;;;;;;;67.30;2.50;;;20.50;39.30;;;;;;6061177;23;20434;-86
2022/05/24 10:58:01;;;;;;;64.87;2.40;;;20.70;1.00;;;;;;6192968;23;20467;-86
2022/05/24 11:00:52;;;;;;;64.30;2.03;;;20.40;1.00;;;;;;6195135;23;20821;-87
2022/05/24 11:03:19;;;;;;;65.27;2.33;;;20.20;1.00;;;;;;6195931;23;20720;-86
2022/05/24 11:06:20;;;;;;;65.20;2.33;;;19.80;1.00;;;;;;6195907;23;20574;-87
2022/05/24 11:09:49;;;;;;;64.30;2.73;;;19.40;1.00;;;;;;6195182;23;20513;-86
2022/05/24 11:12:29;;;;;;;65.07;2.43;;;19.30;8.50;;;;;;6195937;23;20402;-86
2022/05/24 11:15:14;;;;;;;;;;;;;;;;;;;;;
2022/05/24 11:17:40;;;;;;;64.40;2.40;;;19.90;20.10;;;;;;6097519;23;20436;-87
2022/05/24 11:20:11;;;;;;;67.97;2.63;;;20.50;24.90;;;;;;6094883;23;20379;-86
2022/05/24 11:23:01;;;;;;;66.73;2.20;;;20.80;5.10;;;;;;6095174;23;20199;-86
2022/05/24 11:26:14;;;;;;;65.70;2.53;;;20.80;1.00;;;;;;6094057;23;20401;-86
2022/05/24 11:28:49;;;;;;;66.27;2.40;;;20.70;1.00;;;;;;6094760;23;20751;-86
2022/05/24 11:31:29;;;;;;;64.77;2.40;;;21.10;1.00;;;;;;6095167;23;20388;-86
2022/05/24 11:33:57;;;;;;;65.13;2.40;;;21.60;1.00;;;;;;6095684;23;20359;-87
2022/05/24 11:36:37;;;;;;;65.30;2.73;;;21.70;1.00;;;;;;6093368;23;20395;-87
2022/05/24 11:39:33;;;;;;;65.97;2.03;;;21.60;1.00;;;;;;6093262;23;20396;-86
2022/05/24 11:42:20;;;;;;;64.97;2.10;;;21.40;1.00;;;;;;6093871;23;20398;-87
2022/05/24 11:44:46;;;;;;;64.70;1.97;;;21.60;1.00;;;;;;6196818;23;20375;-86
2022/05/24 11:47:39;;;;;;;65.40;2.87;;;21.60;1.00;;;;;;6096676;23;20986;-86
2022/05/24 11:50:08;;;;;;;67.80;2.30;;;21.70;1.00;;;;;;6096845;23;20480;-86
2022/05/24 11:52:43;;;;;;;65.33;2.83;;;21.70;1.00;;;;;;6096479;23;20403;-85
2022/05/24 11:55:09;;;;;;;65.47;2.70;;;21.80;1.00;;;;;;6096034;23;20397;-86
2022/05/24 11:57:41;;;;;;;66.17;4.90;;;21.90;1.00;;;;;;6095755;23;20392;-87
2022/05/24 12:00:11;;;;;;;66.37;2.63;;;22.00;1.00;;;;;;6095140;23;20396;-86
2022/05/24 12:08:40;;;;;;;65.23;1.97;;;21.60;1.00;;;;;;6096912;23;20403;-86
2022/05/24 12:11:06;;;;;;;67.77;2.13;;;21.20;1.00;;;;;;6096238;23;20392;-86
2022/05/24 12:13:48;;;;;;;66.90;2.17;;;20.90;1.00;;;;;;6196109;23;20861;-87
2022/05/24 12:16:40;;;;;;;66.50;2.40;;;20.50;1.00;;;;;;6094413;23;20143;-87
2022/05/24 12:19:37;;;;;;;65.53;2.47;;;20.40;1.00;;;;;;6095737;23;20359;-87
2022/05/24 12:22:06;;;;;;;66.37;2.63;;;20.50;1.00;;;;;;6095000;23;20402;-86
2022/05/24 12:24:38;;;;;;;66.67;4.27;;;20.50;1.00;;;;;;6094778;23;20446;-87
2022/05/24 12:27:40;;;;;;;68.20;3.00;;;20.50;1.00;;;;;;6095647;23;20832;-86
2022/05/24 12:30:28;;;;;;;65.77;2.60;;;20.70;1.00;;;;;;6196475;23;20378;-86
2022/05/24 12:33:04;;;;;;;66.53;5.50;;;20.80;1.00;;;;;;6096690;23;20380;-85
2022/05/24 12:35:32;;;;;;;67.17;7.90;;;21.00;1.00;;;;;;6095764;23;20357;-86
2022/05/24 12:38:00;;;;;;;65.80;2.47;;;21.30;1.00;;;;;;6195954;23;20434;-87
2022/05/24 12:41:02;;;;;;;65.47;2.33;;;21.70;1.00;;;;;;6094775;23;20483;-87
2022/05/24 12:43:34;;;;;;;65.77;2.50;;;21.90;1.00;;;;;;6094852;23;20379;-86
2022/05/24 12:46:03;;;;;;;65.70;1.90;;;22.20;1.00;;;;;;6196350;23;20710;-87
2022/05/24 12:48:35;;;;;;;66.30;3.60;;;22.50;1.00;;;;;;6195197;23;20417;-87
2022/05/24 12:51:20;;;;;;;66.10;2.93;;;22.70;1.00;;;;;;6095316;23;20380;-87
2022/05/24 12:53:46;;;;;;;65.20;1.97;;;22.60;1.00;;;;;;6094982;23;20355;-86
2022/05/24 12:56:19;;;;;;;66.40;2.70;;;22.50;1.00;;;;;;6195679;23;20413;-86
2022/05/24 12:58:48;;;;;;;65.37;2.10;;;22.50;1.00;;;;;;6196082;23;20178;-86
2022/05/24 13:01:27;;;;;;;67.17;2.50;;;22.10;1.00;;;;;;6095153;23;20446;-86
2022/05/24 13:04:07;;;;;;;65.50;2.90;;;22.20;1.00;;;;;;6095281;23;20367;-87
2022/05/24 13:06:39;;;;;;;66.10;3.30;;;22.50;1.00;;;;;;6095316;23;20355;-86
2022/05/24 13:09:27;;;;;;;65.47;2.33;;;22.20;1.00;;;;;;6196444;23;20959;-86
2022/05/24 13:12:07;;;;;;;65.40;3.07;;;22.20;1.00;;;;;;6094099;23;20390;-87
2022/05/24 13:14:38;;;;;;;65.90;2.97;;;22.30;1.00;;;;;;6195734;23;20383;-87
2022/05/24 13:17:07;;;;;;;66.67;3.30;;;22.10;1.00;;;;;;6096054;23;20405;-87
2022/05/24 13:19:50;;;;;;;68.43;3.43;;;22.10;1.00;;;;;;6095603;23;20429;-87
2022/05/24 13:22:16;;;;;;;67.23;3.40;;;22.10;1.00;;;;;;6095619;23;20388;-86
2022/05/24 13:24:59;;;;;;;66.40;2.80;;;22.00;1.00;;;;;;6096749;23;20374;-86
2022/05/24 13:27:25;;;;;;;65.30;2.80;;;22.20;1.00;;;;;;6096899;23;20441;-87
2022/05/24 13:35:24;;;;;;;65.73;4.30;;;22.10;1.00;;;;;;6097320;23;20367;-87
2022/05/24 13:37:58;;;;;;;68.97;3.43;;;21.40;1.00;;;;;;6197942;23;20388;-87
2022/05/24 13:40:49;;;;;;;66.37;4.23;;;21.30;1.00;;;;;;6197982;23;20660;-85
2022/05/24 13:43:40;;;;;;;66.40;3.07;;;21.40;1.00;;;;;;6097615;23;20659;-86
2022/05/24 13:46:21;;;;;;;66.53;2.03;;;21.40;1.00;;;;;;6198071;23;20375;-87
2022/05/24 13:48:56;;;;;;;66.73;3.43;;;21.80;1.00;;;;;;6096876;23;20408;-87
2022/05/24 13:51:39;;;;;;;65.83;2.90;;;22.20;1.00;;;;;;6096749;23;20418;-86
2022/05/24 13:54:32;;;;;;;66.13;3.00;;;22.30;1.00;;;;;;6198881;23;20837;-87
2022/05/24 13:56:57;;;;;;;67.70;3.50;;;22.50;1.00;;;;;;6097073;23;20379;-87
2022/05/24 13:59:24;;;;;;;68.90;3.10;;;22.50;1.00;;;;;;6097414;23;20438;-86
2022/05/24 14:01:56;;;;;;;67.00;3.20;;;22.70;1.00;;;;;;6197791;23;20664;-86
2022/05/24 14:04:27;;;;;;;65.83;3.10;;;22.70;1.00;;;;;;6096460;23;20384;-87
2022/05/24 14:06:56;;;;;;;66.30;2.80;;;23.00;1.00;;;;;;6095388;23;20370;-86
2022/05/24 14:09:23;;;;;;;66.57;4.13;;;23.10;1.00;;;;;;6096419;23;20821;-86
2022/05/24 14:11:52;;;;;;;66.27;3.70;;;23.00;1.00;;;;;;6096929;23;20384;-89